SWNN weather

Novo Intento Airport
Cantá, Roraima, Brazil

Public forecast

Using degrees Celsius for public forecast. Weather courtesy of forecast.io.

METAR (pilot weather report)

Closest report is Atlas Brasil Cantanhede Airport, 5.8 nm (10.8 km) NW. Retrieved 2019/03/25 19:00 UTC (44 minutes ago):

SBBV 251900Z 07008KT 9999 FEW045 SCT080 37/16 Q1008

TAF (pilot weather forecast)

Closest forecast is Atlas Brasil Cantanhede Airport, 5.8 nm (10.8 km) NW. Retrieved 2019/03/25 18:00 UTC (2 hours ago):

TAF SBBV 251600Z 2518/2618 08010KT 9999 SCT040 TN26/2609Z TX35/2617Z BECMG 2600/2602 CAVOK RMK PEU